createdAt,value
2023-09-30T00:13:07.402Z,21.9
2023-09-30T00:28:07.355Z,22
2023-09-30T00:43:07.362Z,22
2023-09-30T00:58:07.296Z,21.8
2023-09-30T01:13:07.289Z,21.5
2023-09-30T01:28:07.211Z,21.4
2023-09-30T01:43:07.264Z,21.3
2023-09-30T01:58:07.189Z,21.1
2023-09-30T02:13:07.514Z,21
2023-09-30T02:28:07.154Z,20.8
2023-09-30T02:43:07.140Z,20.2
2023-09-30T02:58:07.075Z,19.9
2023-09-30T03:13:07.095Z,19.2
2023-09-30T03:28:07.039Z,19
2023-09-30T03:43:07.020Z,18.4
2023-09-30T03:58:06.956Z,18.1
2023-09-30T04:13:06.997Z,17.9
2023-09-30T04:28:06.962Z,17.8
2023-09-30T04:43:06.939Z,17.6
2023-09-30T04:58:06.880Z,17.6
2023-09-30T05:13:06.821Z,17.6
2023-09-30T05:28:06.909Z,17.3
2023-09-30T05:43:06.869Z,17.5
2023-09-30T05:58:06.786Z,17.7
2023-09-30T06:13:06.800Z,17.9
2023-09-30T06:28:06.722Z,18.1
2023-09-30T06:43:06.724Z,18.2
2023-09-30T06:58:06.646Z,18.3
2023-09-30T07:13:06.707Z,18.6
2023-09-30T07:28:06.649Z,18.6
2023-09-30T07:43:06.620Z,19.4
2023-09-30T07:58:06.563Z,20
2023-09-30T08:13:06.567Z,20.2
2023-09-30T08:28:06.523Z,21.1
2023-09-30T08:43:06.609Z,22
2023-09-30T08:58:06.480Z,23.2
2023-09-30T09:13:06.521Z,23.7
2023-09-30T09:28:06.396Z,23.7
2023-09-30T09:43:06.691Z,23.2
2023-09-30T09:58:06.406Z,22.8
2023-09-30T10:13:06.404Z,23.1
2023-09-30T10:28:06.379Z,23.3
2023-09-30T10:43:06.291Z,24.6
2023-09-30T10:58:06.259Z,24.8
2023-09-30T11:13:06.260Z,25.7
2023-09-30T11:28:06.190Z,25.5
2023-09-30T11:58:06.182Z,24.3
2023-09-30T12:13:06.153Z,24.1
2023-09-30T12:28:06.128Z,23.9
2023-09-30T12:43:06.117Z,23.7
2023-09-30T12:58:06.071Z,23.7
2023-09-30T13:13:06.083Z,23.9
2023-09-30T13:28:06.001Z,23.8
2023-09-30T13:43:06.019Z,23.7
2023-09-30T13:58:06.045Z,23.7
2023-09-30T14:13:05.956Z,23.6
2023-09-30T14:28:05.961Z,23.6
2023-09-30T14:43:05.939Z,23.5
2023-09-30T14:58:05.843Z,23.5
2023-09-30T15:13:05.893Z,23.4
2023-09-30T15:28:05.809Z,23.3
2023-09-30T15:43:05.810Z,23.1
2023-09-30T15:58:05.736Z,23
2023-09-30T16:13:05.758Z,22.8
2023-09-30T16:28:05.803Z,22.7
2023-09-30T16:43:05.690Z,22.7
2023-09-30T16:58:05.617Z,22.3
2023-09-30T17:13:05.632Z,22
2023-09-30T17:28:05.612Z,21.8
2023-09-30T17:43:05.594Z,21.7
2023-09-30T17:58:05.529Z,21.4
2023-09-30T18:13:05.525Z,21.2
2023-09-30T18:28:05.504Z,20.9
2023-09-30T18:43:05.472Z,20.8
2023-09-30T18:58:05.447Z,20.5
2023-09-30T19:13:05.499Z,20.1
2023-09-30T19:28:05.377Z,19.8
2023-09-30T19:43:05.407Z,19.4
2023-09-30T19:58:05.412Z,18.7
2023-09-30T20:13:05.336Z,18.4
2023-09-30T20:28:05.239Z,18.5
2023-09-30T20:43:05.274Z,18.4
2023-09-30T20:58:05.246Z,18.2
2023-09-30T21:13:05.249Z,18
2023-09-30T21:28:05.183Z,17.7
2023-09-30T21:43:05.218Z,17.2
2023-09-30T21:58:05.139Z,17
2023-09-30T22:13:05.152Z,16.6
2023-09-30T22:28:06.664Z,16.3
2023-09-30T22:43:05.097Z,16
2023-09-30T22:58:05.239Z,16
2023-09-30T23:13:05.034Z,16
2023-09-30T23:28:05.045Z,15.9
2023-09-30T23:43:04.977Z,15.7
2023-09-30T23:58:04.889Z,15.5
